createdAt,value
2019-05-22T00:00:40.972Z,9.00
2019-05-22T00:03:20.108Z,8.90
2019-05-22T00:05:50.254Z,8.90
2019-05-22T00:08:19.569Z,8.90
2019-05-22T00:10:49.782Z,8.90
2019-05-22T00:13:20.165Z,8.90
2019-05-22T00:15:50.289Z,8.90
2019-05-22T00:18:19.626Z,8.80
2019-05-22T00:20:49.752Z,8.80
2019-05-22T00:23:18.741Z,8.80
2019-05-22T00:25:47.564Z,8.80
2019-05-22T00:28:17.930Z,8.70
2019-05-22T00:31:05.912Z,8.70
2019-05-22T00:33:36.468Z,8.70
2019-05-22T00:36:06.747Z,8.80
2019-05-22T00:38:36.876Z,8.80
2019-05-22T00:41:09.770Z,8.80
2019-05-22T00:43:39.789Z,8.70
2019-05-22T00:46:09.933Z,8.70
2019-05-22T00:48:40.734Z,8.70
2019-05-22T00:51:11.156Z,8.60
2019-05-22T00:53:50.376Z,8.60
2019-05-22T00:56:32.321Z,8.60
2019-05-22T00:59:08.269Z,8.60
2019-05-22T01:01:39.947Z,8.50
2019-05-22T01:04:10.075Z,8.60
2019-05-22T01:06:38.928Z,8.50
2019-05-22T01:09:10.010Z,8.50
2019-05-22T01:11:39.616Z,8.40
2019-05-22T01:14:09.502Z,8.40
2019-05-22T01:16:39.770Z,8.40
2019-05-22T01:19:08.225Z,8.40
2019-05-22T01:21:38.364Z,8.30
2019-05-22T01:24:07.894Z,8.30
2019-05-22T01:26:36.665Z,8.30
2019-05-22T01:29:06.125Z,8.30
2019-05-22T01:31:42.073Z,8.30
2019-05-22T01:34:15.371Z,8.20
2019-05-22T01:36:45.658Z,8.10
2019-05-22T01:39:18.381Z,8.20
2019-05-22T01:41:48.339Z,8.20
2019-05-22T01:44:17.849Z,8.10
2019-05-22T01:46:46.333Z,8.00
2019-05-22T01:49:18.917Z,8.00
2019-05-22T01:51:47.441Z,8.00
2019-05-22T01:54:16.141Z,7.90
2019-05-22T01:56:46.071Z,7.90
2019-05-22T01:59:15.505Z,7.90
2019-05-22T02:01:45.324Z,7.90
2019-05-22T02:04:14.899Z,8.00
2019-05-22T02:06:45.168Z,8.00
2019-05-22T02:09:33.365Z,8.00
2019-05-22T02:12:09.273Z,8.00
2019-05-22T02:14:38.683Z,7.90
2019-05-22T02:17:07.898Z,7.90
2019-05-22T02:19:36.373Z,7.80
2019-05-22T02:22:06.459Z,7.80
2019-05-22T02:24:36.522Z,7.80
2019-05-22T02:27:06.233Z,7.80
2019-05-22T02:29:35.954Z,7.70
2019-05-22T02:32:06.730Z,7.70
2019-05-22T02:34:35.892Z,7.60
2019-05-22T02:37:05.972Z,7.60
2019-05-22T02:39:36.064Z,7.60
2019-05-22T02:42:15.502Z,7.60
2019-05-22T02:44:45.846Z,7.60
2019-05-22T02:47:19.899Z,7.60
2019-05-22T02:49:46.138Z,7.60
2019-05-22T02:52:15.720Z,7.60
2019-05-22T02:54:44.285Z,7.50
2019-05-22T02:57:13.400Z,7.50
2019-05-22T02:59:42.465Z,7.50
2019-05-22T03:02:12.855Z,7.40
2019-05-22T03:04:56.328Z,7.40
2019-05-22T03:07:26.004Z,7.40
2019-05-22T03:09:54.950Z,7.40
2019-05-22T03:12:24.464Z,7.30
2019-05-22T03:14:53.030Z,7.30
2019-05-22T03:17:28.073Z,7.30
2019-05-22T03:19:58.182Z,7.30
2019-05-22T03:22:28.701Z,7.30
2019-05-22T03:25:00.327Z,7.30
2019-05-22T03:27:38.976Z,7.40
2019-05-22T03:30:11.129Z,7.40
2019-05-22T03:32:43.647Z,7.40
2019-05-22T03:35:10.537Z,7.40
2019-05-22T03:37:39.857Z,7.40
2019-05-22T03:40:09.223Z,7.50
2019-05-22T03:42:37.991Z,7.50
2019-05-22T03:45:10.553Z,7.50
2019-05-22T03:47:40.635Z,7.60
2019-05-22T03:50:09.656Z,7.70
2019-05-22T03:52:38.553Z,7.60
2019-05-22T03:55:07.841Z,7.70
2019-05-22T03:57:37.093Z,7.70
2019-05-22T04:00:08.860Z,7.70
2019-05-22T04:02:37.374Z,7.70
2019-05-22T04:05:09.052Z,7.70
2019-05-22T04:07:39.432Z,7.70
2019-05-22T04:10:10.415Z,7.70
2019-05-22T04:12:39.129Z,7.70
2019-05-22T04:15:09.388Z,7.70
2019-05-22T04:17:39.997Z,7.70
2019-05-22T04:20:09.261Z,7.70
2019-05-22T04:22:37.824Z,7.70
2019-05-22T04:25:07.910Z,7.70
2019-05-22T04:27:36.464Z,7.70
2019-05-22T04:30:09.333Z,7.70
2019-05-22T04:32:42.260Z,7.70
2019-05-22T04:35:12.329Z,7.80
2019-05-22T04:37:41.888Z,7.80
2019-05-22T04:40:25.871Z,7.80
2019-05-22T04:42:57.962Z,7.80
2019-05-22T04:45:27.182Z,7.80
2019-05-22T04:47:58.647Z,7.90
2019-05-22T04:50:28.949Z,7.90
2019-05-22T04:52:57.538Z,8.00
2019-05-22T04:55:27.091Z,8.10
2019-05-22T04:57:55.660Z,8.10
2019-05-22T05:00:24.107Z,8.30
2019-05-22T05:02:52.948Z,8.50
2019-05-22T05:05:23.165Z,8.60
2019-05-22T05:07:52.298Z,8.70
2019-05-22T05:10:21.110Z,8.80
2019-05-22T05:12:49.676Z,9.00
2019-05-22T05:15:18.490Z,9.10
2019-05-22T05:17:47.022Z,9.20
2019-05-22T05:20:22.637Z,9.40
2019-05-22T05:22:46.363Z,9.50
2019-05-22T05:25:16.594Z,9.60
2019-05-22T05:27:45.373Z,9.70
2019-05-22T05:30:14.857Z,9.80
2019-05-22T05:32:43.697Z,10.00
2019-05-22T05:35:12.920Z,10.20
2019-05-22T05:37:41.633Z,10.30
2019-05-22T05:40:31.367Z,10.50
2019-05-22T05:43:00.161Z,10.70
2019-05-22T05:45:29.285Z,10.90
2019-05-22T05:47:58.328Z,11.10
2019-05-22T05:50:39.008Z,11.20
2019-05-22T05:53:00.077Z,11.30
2019-05-22T05:55:33.524Z,11.40
2019-05-22T05:58:21.444Z,11.40
2019-05-22T06:00:54.326Z,11.50
2019-05-22T06:03:39.686Z,11.50
2019-05-22T06:06:28.736Z,11.50
2019-05-22T06:09:00.677Z,11.50
2019-05-22T06:11:39.394Z,11.40
2019-05-22T06:14:08.825Z,11.40
2019-05-22T06:16:54.524Z,11.50
2019-05-22T06:19:23.974Z,11.60
2019-05-22T06:21:52.700Z,11.60
2019-05-22T06:24:38.420Z,11.80
2019-05-22T06:27:11.823Z,11.80
2019-05-22T06:29:57.698Z,11.90
2019-05-22T06:32:36.695Z,11.90
2019-05-22T06:35:07.793Z,12.00
2019-05-22T06:37:45.453Z,12.00
2019-05-22T06:40:14.872Z,12.10
2019-05-22T06:42:45.265Z,12.10
2019-05-22T06:45:13.770Z,12.20
2019-05-22T06:47:42.573Z,12.30
2019-05-22T06:50:11.179Z,12.30
2019-05-22T06:52:39.749Z,12.40
2019-05-22T06:55:08.318Z,12.40
2019-05-22T06:57:36.868Z,12.50
2019-05-22T07:00:14.231Z,12.50
2019-05-22T07:02:38.692Z,12.60
2019-05-22T07:05:07.651Z,12.70
2019-05-22T07:07:36.097Z,12.80
2019-05-22T07:10:06.661Z,12.90
2019-05-22T07:12:36.321Z,12.90
2019-05-22T07:15:08.705Z,13.00
2019-05-22T07:17:37.715Z,13.10
2019-05-22T07:20:06.745Z,13.20
2019-05-22T07:22:35.564Z,13.40
2019-05-22T07:25:06.216Z,13.50
2019-05-22T07:27:34.712Z,13.60
2019-05-22T07:30:04.429Z,13.70
2019-05-22T07:32:32.986Z,13.80
2019-05-22T07:35:01.550Z,13.90
2019-05-22T07:37:30.307Z,13.90
2019-05-22T07:39:58.758Z,14.10
2019-05-22T07:42:27.250Z,14.30
2019-05-22T07:44:55.699Z,14.30
2019-05-22T07:47:24.588Z,14.20
2019-05-22T07:49:53.410Z,14.20
2019-05-22T07:52:22.140Z,14.10
2019-05-22T07:54:50.929Z,14.00
2019-05-22T07:57:21.382Z,14.10
2019-05-22T07:59:49.826Z,14.20
2019-05-22T08:02:18.950Z,14.30
2019-05-22T08:04:47.623Z,14.20
2019-05-22T08:07:17.888Z,14.20
2019-05-22T08:09:46.405Z,14.40
2019-05-22T08:12:15.566Z,14.50
2019-05-22T08:14:44.126Z,14.40
2019-05-22T08:17:12.542Z,14.50
2019-05-22T08:19:41.033Z,14.80
2019-05-22T08:22:09.494Z,14.80
2019-05-22T08:24:38.039Z,14.90
2019-05-22T08:27:07.166Z,14.90
2019-05-22T08:29:35.686Z,14.80
2019-05-22T08:32:05.217Z,14.80
2019-05-22T08:34:33.905Z,15.00
2019-05-22T08:37:02.399Z,15.10
2019-05-22T08:39:30.846Z,15.20
2019-05-22T08:41:59.340Z,15.40
2019-05-22T08:44:27.785Z,15.40
2019-05-22T08:46:56.829Z,15.50
2019-05-22T08:49:25.769Z,15.60
2019-05-22T08:51:54.324Z,15.60
2019-05-22T08:54:22.832Z,15.80
2019-05-22T08:56:51.559Z,16.10
2019-05-22T08:59:20.365Z,16.30
2019-05-22T09:01:49.769Z,16.30
2019-05-22T09:04:18.201Z,16.50
2019-05-22T09:06:46.714Z,16.60
2019-05-22T09:09:15.774Z,16.50
2019-05-22T09:11:44.265Z,16.60
2019-05-22T09:14:12.758Z,16.90
2019-05-22T09:16:41.203Z,17.00
2019-05-22T09:19:09.674Z,16.90
2019-05-22T09:21:40.663Z,16.80
2019-05-22T09:24:12.809Z,16.90
2019-05-22T09:26:42.270Z,16.60
2019-05-22T09:29:10.744Z,16.40
2019-05-22T09:31:39.196Z,16.30
2019-05-22T09:34:07.709Z,16.20
2019-05-22T09:36:36.323Z,16.10
2019-05-22T09:39:07.242Z,15.90
2019-05-22T09:41:36.201Z,16.00
2019-05-22T09:44:04.821Z,16.20
2019-05-22T09:46:33.489Z,16.50
2019-05-22T09:49:03.384Z,16.80
2019-05-22T09:51:32.928Z,17.00
2019-05-22T09:54:02.215Z,17.10
2019-05-22T09:56:31.030Z,17.30
2019-05-22T09:58:59.894Z,17.50
2019-05-22T10:01:28.353Z,17.50
2019-05-22T10:03:56.990Z,17.40
2019-05-22T10:06:25.460Z,17.20
2019-05-22T10:08:53.876Z,17.10
2019-05-22T10:11:22.373Z,17.00
2019-05-22T10:13:50.957Z,16.90
2019-05-22T10:16:19.556Z,16.80
2019-05-22T10:18:52.295Z,16.80
2019-05-22T10:21:18.853Z,16.70
2019-05-22T10:23:47.829Z,16.90
2019-05-22T10:26:16.395Z,17.20
2019-05-22T10:28:45.247Z,17.20
2019-05-22T10:31:16.518Z,17.00
2019-05-22T10:33:44.328Z,16.90
2019-05-22T10:36:13.146Z,16.90
2019-05-22T10:38:41.619Z,17.00
2019-05-22T10:41:10.877Z,16.80
2019-05-22T10:43:39.344Z,16.70
2019-05-22T10:46:08.760Z,16.90
2019-05-22T10:48:40.105Z,17.20
2019-05-22T10:51:07.496Z,17.40
2019-05-22T10:53:37.081Z,17.50
2019-05-22T10:56:06.030Z,17.60
2019-05-22T10:58:34.617Z,17.70
2019-05-22T11:01:03.254Z,17.70
2019-05-22T11:03:32.613Z,17.80
2019-05-22T11:06:07.307Z,18.10
2019-05-22T11:08:34.328Z,17.70
2019-05-22T11:11:01.737Z,17.70
2019-05-22T11:13:34.035Z,17.90
2019-05-22T11:16:00.481Z,18.20
2019-05-22T11:18:29.000Z,18.20
2019-05-22T11:20:57.451Z,18.30
2019-05-22T11:23:26.481Z,18.20
2019-05-22T11:25:55.019Z,18.10
2019-05-22T11:28:23.493Z,17.80
2019-05-22T11:30:52.209Z,17.80
2019-05-22T11:33:20.967Z,17.80
2019-05-22T11:35:49.880Z,17.80
2019-05-22T11:38:18.333Z,17.80
2019-05-22T11:40:46.822Z,17.80
2019-05-22T11:43:15.543Z,17.40
2019-05-22T11:45:45.383Z,17.10
2019-05-22T11:48:14.883Z,16.70
2019-05-22T11:50:44.209Z,16.20
2019-05-22T11:53:13.549Z,16.00
2019-05-22T11:55:45.638Z,16.00
2019-05-22T11:58:12.282Z,16.20
2019-05-22T12:00:40.801Z,16.20
2019-05-22T12:03:09.265Z,16.20
2019-05-22T12:05:38.125Z,16.10
2019-05-22T12:08:06.642Z,16.10
2019-05-22T12:10:35.665Z,16.00
2019-05-22T12:13:04.751Z,16.00
2019-05-22T12:15:33.773Z,15.90
2019-05-22T12:18:02.494Z,16.00
2019-05-22T12:20:31.872Z,15.90
2019-05-22T12:23:00.317Z,16.00
2019-05-22T12:25:28.890Z,15.80
2019-05-22T12:27:57.409Z,15.50
2019-05-22T12:30:25.997Z,15.60
2019-05-22T12:32:55.465Z,15.90
2019-05-22T12:35:23.958Z,15.90
2019-05-22T12:37:52.477Z,15.90
2019-05-22T12:40:21.058Z,15.90
2019-05-22T12:42:49.949Z,15.90
2019-05-22T12:45:23.574Z,16.00
2019-05-22T12:47:52.025Z,15.80
2019-05-22T12:50:20.529Z,16.10
2019-05-22T12:52:49.139Z,16.10
2019-05-22T12:55:18.608Z,16.40
2019-05-22T12:57:48.034Z,16.70
2019-05-22T13:00:17.521Z,17.10
2019-05-22T13:02:46.440Z,17.30
2019-05-22T13:05:15.027Z,17.30
2019-05-22T13:07:43.501Z,17.50
2019-05-22T13:10:11.996Z,17.50
2019-05-22T13:12:40.513Z,17.30
2019-05-22T13:15:10.831Z,17.00
2019-05-22T13:17:39.674Z,16.60
2019-05-22T13:20:08.276Z,16.40
2019-05-22T13:22:37.694Z,16.10
2019-05-22T13:25:07.453Z,16.20
2019-05-22T13:27:36.446Z,16.20
2019-05-22T13:30:08.235Z,16.10
2019-05-22T13:32:36.795Z,16.00
2019-05-22T13:35:07.849Z,16.50
2019-05-22T13:37:36.905Z,16.80
2019-05-22T13:40:06.364Z,17.00
2019-05-22T13:42:34.857Z,16.90
2019-05-22T13:45:05.147Z,17.00
2019-05-22T13:47:34.005Z,17.10
2019-05-22T13:50:02.617Z,17.10
2019-05-22T13:52:31.281Z,17.50
2019-05-22T13:55:00.404Z,18.00
2019-05-22T13:57:29.113Z,18.30
2019-05-22T13:59:57.593Z,18.70
2019-05-22T14:02:27.251Z,18.50
2019-05-22T14:04:56.106Z,18.20
2019-05-22T14:07:24.545Z,18.00
2019-05-22T14:09:53.045Z,17.70
2019-05-22T14:12:22.409Z,17.10
2019-05-22T14:14:51.217Z,17.20
2019-05-22T14:17:19.705Z,17.10
2019-05-22T14:19:48.429Z,17.00
2019-05-22T14:22:16.979Z,16.70
2019-05-22T14:24:45.489Z,16.40
2019-05-22T14:27:13.938Z,16.30
2019-05-22T14:29:42.421Z,16.20
2019-05-22T14:32:11.862Z,16.10
2019-05-22T14:34:40.304Z,15.90
2019-05-22T14:37:09.130Z,15.80
2019-05-22T14:39:37.957Z,15.80
2019-05-22T14:42:06.477Z,16.00
2019-05-22T14:44:34.957Z,16.20
2019-05-22T14:47:13.246Z,16.30
2019-05-22T14:49:33.613Z,16.30
2019-05-22T14:52:02.333Z,16.50
2019-05-22T14:54:30.829Z,16.70
2019-05-22T14:56:59.281Z,16.80
2019-05-22T14:59:27.843Z,16.80
2019-05-22T15:01:56.418Z,16.80
2019-05-22T15:04:25.406Z,16.70
2019-05-22T15:06:54.006Z,16.90
2019-05-22T15:09:22.489Z,16.90
2019-05-22T15:11:51.510Z,17.10
2019-05-22T15:14:21.008Z,17.20
2019-05-22T15:16:49.480Z,17.50
2019-05-22T15:19:18.270Z,17.80
2019-05-22T15:21:46.728Z,18.10
2019-05-22T15:24:15.293Z,18.10
2019-05-22T15:26:43.734Z,18.10
2019-05-22T15:29:12.181Z,18.00
2019-05-22T15:31:40.683Z,17.70
2019-05-22T15:34:10.390Z,17.50
2019-05-22T15:36:39.763Z,17.30
2019-05-22T15:39:10.913Z,17.30
2019-05-22T15:41:39.474Z,17.60
2019-05-22T15:44:08.794Z,18.00
2019-05-22T15:46:37.358Z,18.00
2019-05-22T15:49:05.929Z,18.30
2019-05-22T15:51:34.531Z,18.60
2019-05-22T15:54:05.681Z,18.50
2019-05-22T15:56:34.500Z,18.50
2019-05-22T15:59:02.986Z,18.40
2019-05-22T16:01:32.446Z,18.20
2019-05-22T16:04:01.266Z,18.20
2019-05-22T16:06:29.977Z,18.20
2019-05-22T16:08:58.655Z,18.30
2019-05-22T16:11:27.663Z,18.20
2019-05-22T16:13:56.929Z,18.00
2019-05-22T16:16:26.093Z,17.70
2019-05-22T16:18:54.905Z,17.30
2019-05-22T16:21:23.354Z,17.20
2019-05-22T16:23:51.874Z,17.30
2019-05-22T16:26:20.869Z,17.30
2019-05-22T16:28:49.320Z,17.40
2019-05-22T16:31:19.549Z,17.40
2019-05-22T16:33:48.073Z,17.70
2019-05-22T16:36:17.486Z,17.80
2019-05-22T16:38:46.484Z,17.90
2019-05-22T16:41:15.247Z,18.20
2019-05-22T16:43:49.345Z,18.50
2019-05-22T16:46:14.213Z,18.70
2019-05-22T16:48:43.268Z,18.80
2019-05-22T16:51:12.838Z,18.40
2019-05-22T16:53:42.033Z,18.20
2019-05-22T16:56:10.582Z,17.90
2019-05-22T16:58:39.037Z,17.40
2019-05-22T17:01:07.894Z,17.40
2019-05-22T17:03:36.406Z,17.70
2019-05-22T17:06:05.005Z,17.70
2019-05-22T17:08:33.877Z,17.70
2019-05-22T17:11:02.591Z,17.80
2019-05-22T17:13:32.570Z,18.40
2019-05-22T17:16:01.660Z,19.10
2019-05-22T17:18:45.853Z,20.00
2019-05-22T17:21:01.520Z,20.20
2019-05-22T17:23:30.033Z,20.40
2019-05-22T17:25:58.819Z,20.10
2019-05-22T17:28:27.842Z,19.50
2019-05-22T17:30:56.357Z,18.90
2019-05-22T17:33:25.333Z,18.50
2019-05-22T17:35:54.046Z,18.20
2019-05-22T17:38:23.237Z,17.60
2019-05-22T17:40:52.262Z,17.40
2019-05-22T17:43:20.940Z,17.30
2019-05-22T17:45:49.998Z,17.30
2019-05-22T17:48:19.205Z,17.20
2019-05-22T17:50:47.689Z,16.80
2019-05-22T17:53:18.038Z,16.70
2019-05-22T17:55:48.276Z,16.70
2019-05-22T17:58:16.956Z,16.60
2019-05-22T18:00:47.036Z,16.60
2019-05-22T18:03:15.629Z,16.70
2019-05-22T18:05:47.959Z,16.80
2019-05-22T18:08:16.982Z,16.80
2019-05-22T18:10:47.715Z,16.60
2019-05-22T18:13:16.657Z,16.40
2019-05-22T18:15:46.070Z,16.30
2019-05-22T18:18:14.946Z,16.30
2019-05-22T18:20:44.333Z,16.30
2019-05-22T18:23:13.477Z,16.40
2019-05-22T18:25:43.417Z,16.50
2019-05-22T18:28:11.861Z,16.50
2019-05-22T18:30:42.312Z,16.60
2019-05-22T18:33:11.929Z,16.50
2019-05-22T18:35:40.440Z,16.50
2019-05-22T18:38:08.938Z,16.30
2019-05-22T18:40:37.414Z,16.30
2019-05-22T18:43:05.977Z,16.30
2019-05-22T18:45:35.303Z,16.30
2019-05-22T18:48:03.852Z,16.30
2019-05-22T18:50:33.085Z,16.30
2019-05-22T18:53:01.577Z,16.30
2019-05-22T18:55:30.025Z,16.20
2019-05-22T18:57:58.608Z,16.20
2019-05-22T19:00:28.742Z,16.10
2019-05-22T19:02:57.754Z,16.00
2019-05-22T19:05:27.450Z,16.00
2019-05-22T19:07:56.003Z,15.90
2019-05-22T19:10:24.525Z,15.90
2019-05-22T19:12:53.037Z,15.80
2019-05-22T19:15:21.632Z,15.70
2019-05-22T19:17:50.578Z,15.70
2019-05-22T19:20:19.028Z,15.50
2019-05-22T19:22:59.084Z,15.50
2019-05-22T19:25:17.698Z,15.40
2019-05-22T19:27:46.140Z,15.30
2019-05-22T19:30:16.391Z,15.30
2019-05-22T19:32:45.010Z,15.20
2019-05-22T19:35:13.442Z,15.10
2019-05-22T19:37:42.017Z,15.00
2019-05-22T19:40:12.169Z,14.90
2019-05-22T19:42:41.077Z,14.90
2019-05-22T19:45:11.208Z,14.80
2019-05-22T19:47:43.024Z,14.70
2019-05-22T19:50:22.761Z,14.70
2019-05-22T19:52:42.617Z,14.60
2019-05-22T19:55:12.701Z,14.50
2019-05-22T19:57:41.772Z,14.40
2019-05-22T20:00:12.359Z,14.30
2019-05-22T20:02:41.590Z,14.20
2019-05-22T20:05:10.411Z,14.20
2019-05-22T20:07:39.301Z,14.10
2019-05-22T20:10:09.220Z,14.00
2019-05-22T20:12:38.230Z,14.00
2019-05-22T20:15:09.929Z,13.90
2019-05-22T20:17:38.656Z,13.80
2019-05-22T20:20:11.897Z,13.80
2019-05-22T20:22:41.088Z,13.70
2019-05-22T20:25:10.124Z,13.70
2019-05-22T20:27:39.054Z,13.70
2019-05-22T20:30:07.939Z,13.60
2019-05-22T20:32:38.246Z,13.60
2019-05-22T20:35:07.316Z,13.50
2019-05-22T20:37:35.752Z,13.40
2019-05-22T20:40:06.801Z,13.40
2019-05-22T20:42:35.976Z,13.40
2019-05-22T20:45:07.181Z,13.40
2019-05-22T20:47:37.630Z,13.30
2019-05-22T20:50:08.569Z,13.30
2019-05-22T20:52:37.390Z,13.20
2019-05-22T20:55:07.341Z,13.20
2019-05-22T20:57:35.918Z,13.10
2019-05-22T21:00:08.237Z,13.10
2019-05-22T21:02:37.379Z,13.00
2019-05-22T21:05:09.197Z,13.00
2019-05-22T21:07:39.858Z,13.00
2019-05-22T21:10:09.209Z,13.00
2019-05-22T21:12:37.954Z,12.90
2019-05-22T21:15:06.917Z,12.90
2019-05-22T21:17:37.165Z,12.90
2019-05-22T21:20:10.373Z,12.80
2019-05-22T21:22:39.254Z,12.80
2019-05-22T21:25:07.914Z,12.80
2019-05-22T21:27:38.063Z,12.70
2019-05-22T21:30:10.536Z,12.70
2019-05-22T21:32:39.457Z,12.70
2019-05-22T21:35:08.232Z,12.60
2019-05-22T21:37:37.413Z,12.60
2019-05-22T21:40:06.574Z,12.50
2019-05-22T21:42:36.454Z,12.50
2019-05-22T21:45:07.417Z,12.40
2019-05-22T21:47:36.461Z,12.40
2019-05-22T21:50:08.285Z,12.30
2019-05-22T21:52:36.847Z,12.30
2019-05-22T21:55:07.906Z,12.30
2019-05-22T21:57:37.965Z,12.30
2019-05-22T22:00:13.093Z,12.30
2019-05-22T22:02:43.877Z,12.20
2019-05-22T22:05:12.797Z,12.20
2019-05-22T22:07:42.097Z,12.10
2019-05-22T22:10:11.820Z,12.10
2019-05-22T22:12:41.826Z,12.10
2019-05-22T22:15:10.788Z,12.00
2019-05-22T22:17:39.605Z,12.00
2019-05-22T22:20:08.381Z,12.00
2019-05-22T22:22:36.932Z,11.90
2019-05-22T22:25:06.922Z,11.90
2019-05-22T22:27:36.231Z,11.80
2019-05-22T22:30:11.765Z,11.80
2019-05-22T22:32:41.025Z,11.80
2019-05-22T22:35:10.576Z,11.70
2019-05-22T22:37:39.637Z,11.70
2019-05-22T22:40:08.896Z,11.70
2019-05-22T22:42:38.034Z,11.60
2019-05-22T22:45:09.504Z,11.60
2019-05-22T22:47:39.589Z,11.60
2019-05-22T22:50:08.092Z,11.60
2019-05-22T22:52:37.641Z,11.50
2019-05-22T22:55:08.881Z,11.50
2019-05-22T22:57:38.513Z,11.50
2019-05-22T23:00:08.964Z,11.50
2019-05-22T23:02:39.159Z,11.40
2019-05-22T23:05:07.640Z,11.40
2019-05-22T23:07:36.701Z,11.40
2019-05-22T23:10:09.654Z,11.30
2019-05-22T23:12:39.573Z,11.30
2019-05-22T23:15:09.870Z,11.30
2019-05-22T23:17:38.853Z,11.20
2019-05-22T23:20:08.085Z,11.30
2019-05-22T23:22:35.680Z,11.20
2019-05-22T23:25:04.278Z,11.20
2019-05-22T23:27:33.217Z,11.20
2019-05-22T23:30:02.982Z,11.10
2019-05-22T23:32:31.769Z,11.20
2019-05-22T23:35:01.305Z,11.10
2019-05-22T23:37:29.965Z,11.10
2019-05-22T23:39:59.428Z,11.10
2019-05-22T23:42:31.495Z,11.10
2019-05-22T23:45:00.721Z,11.00
2019-05-22T23:47:29.694Z,11.00
2019-05-22T23:49:59.047Z,11.00
2019-05-22T23:52:27.955Z,11.10
2019-05-22T23:54:57.316Z,11.00
2019-05-22T23:57:28.609Z,11.00
2019-05-22T23:59:58.933Z,11.00
